createdAt,value
2019-02-18T00:01:03.371Z,2.40
2019-02-18T00:03:29.577Z,2.50
2019-02-18T00:05:55.671Z,2.50
2019-02-18T00:08:21.740Z,2.40
2019-02-18T00:10:47.824Z,2.50
2019-02-18T00:13:13.911Z,2.40
2019-02-18T00:15:40.108Z,2.30
2019-02-18T00:18:26.160Z,2.10
2019-02-18T00:20:52.260Z,1.10
2019-02-18T00:23:18.451Z,2.20
2019-02-18T00:25:44.547Z,2.20
2019-02-18T00:28:10.619Z,2.20
2019-02-18T00:30:36.743Z,2.30
2019-02-18T00:33:02.812Z,2.40
2019-02-18T00:35:28.900Z,2.50
2019-02-18T00:37:54.966Z,2.50
2019-02-18T00:40:21.147Z,2.50
2019-02-18T00:42:47.216Z,2.50
2019-02-18T00:45:13.431Z,2.50
2019-02-18T00:47:39.503Z,2.40
2019-02-18T00:50:07.599Z,2.40
2019-02-18T00:52:33.684Z,2.30
2019-02-18T00:54:59.785Z,2.30
2019-02-18T00:57:26.802Z,2.30
2019-02-18T00:59:52.884Z,2.30
2019-02-18T01:02:19.000Z,2.20
2019-02-18T01:04:45.068Z,2.10
2019-02-18T01:07:11.249Z,2.60
2019-02-18T01:09:37.324Z,1.90
2019-02-18T01:12:03.400Z,1.90
2019-02-18T01:14:29.596Z,1.90
2019-02-18T01:16:55.664Z,2.00
2019-02-18T01:19:21.759Z,2.00
2019-02-18T01:21:47.845Z,2.10
2019-02-18T01:24:13.937Z,2.20
2019-02-18T01:26:40.013Z,2.20
2019-02-18T01:29:06.087Z,2.30
2019-02-18T01:31:32.184Z,2.30
2019-02-18T01:33:58.247Z,2.30
2019-02-18T01:36:24.346Z,2.40
2019-02-18T01:38:50.422Z,2.40
2019-02-18T01:41:16.564Z,2.30
2019-02-18T01:43:42.728Z,2.30
2019-02-18T01:46:08.830Z,2.40
2019-02-18T01:48:34.916Z,2.40
2019-02-18T01:51:00.988Z,2.40
2019-02-18T01:53:27.065Z,2.40
2019-02-18T01:55:53.144Z,2.40
2019-02-18T01:58:19.363Z,2.40
2019-02-18T02:00:45.457Z,2.40
2019-02-18T02:03:11.636Z,2.40
2019-02-18T02:05:37.718Z,2.40
2019-02-18T02:08:04.127Z,2.40
2019-02-18T02:10:30.296Z,2.40
2019-02-18T02:13:28.529Z,2.40
2019-02-18T02:15:55.594Z,2.40
2019-02-18T02:18:21.672Z,2.30
2019-02-18T02:20:47.773Z,2.30
2019-02-18T02:23:13.849Z,2.40
2019-02-18T02:25:39.952Z,2.40
2019-02-18T02:28:06.025Z,2.40
2019-02-18T02:30:32.101Z,2.40
2019-02-18T02:32:58.316Z,2.40
2019-02-18T02:35:24.485Z,2.50
2019-02-18T02:37:50.621Z,2.60
2019-02-18T02:40:16.688Z,2.60
2019-02-18T02:42:42.784Z,2.70
2019-02-18T02:45:09.251Z,2.70
2019-02-18T02:47:35.335Z,2.80
2019-02-18T02:50:01.440Z,2.90
2019-02-18T02:52:27.521Z,3.00
2019-02-18T02:54:53.718Z,3.10
2019-02-18T02:57:19.776Z,3.20
2019-02-18T02:59:45.889Z,3.20
2019-02-18T03:02:11.966Z,3.20
2019-02-18T03:04:38.044Z,3.20
2019-02-18T03:07:04.137Z,3.20
2019-02-18T03:09:30.245Z,3.20
2019-02-18T03:11:56.387Z,3.10
2019-02-18T03:14:22.462Z,3.10
2019-02-18T03:16:48.565Z,3.10
2019-02-18T03:19:14.733Z,3.10
2019-02-18T03:21:40.823Z,3.10
2019-02-18T03:24:06.928Z,3.10
2019-02-18T03:26:33.005Z,3.10
2019-02-18T03:29:25.896Z,3.10
2019-02-18T03:31:51.965Z,3.20
2019-02-18T03:34:21.874Z,3.20
2019-02-18T03:36:48.032Z,3.20
2019-02-18T03:39:14.159Z,3.20
2019-02-18T03:41:41.017Z,3.20
2019-02-18T03:44:07.313Z,3.20
2019-02-18T03:46:33.400Z,3.20
2019-02-18T03:48:59.470Z,3.20
2019-02-18T03:51:25.557Z,3.30
2019-02-18T03:53:51.636Z,3.20
2019-02-18T03:56:17.804Z,3.10
2019-02-18T03:58:43.996Z,3.20
2019-02-18T04:01:10.060Z,3.20
2019-02-18T04:03:36.175Z,3.30
2019-02-18T04:06:02.336Z,3.20
2019-02-18T04:08:28.429Z,3.30
2019-02-18T04:10:54.510Z,3.20
2019-02-18T04:13:20.595Z,3.20
2019-02-18T04:15:46.668Z,3.10
2019-02-18T04:18:12.760Z,3.10
2019-02-18T04:20:38.849Z,3.20
2019-02-18T04:23:04.965Z,3.10
2019-02-18T04:25:31.029Z,3.00
2019-02-18T04:28:16.998Z,2.90
2019-02-18T04:30:43.088Z,1.60
2019-02-18T04:33:09.187Z,2.60
2019-02-18T04:35:35.275Z,2.40
2019-02-18T04:38:01.341Z,2.30
2019-02-18T04:40:27.442Z,2.20
2019-02-18T04:42:53.519Z,2.10
2019-02-18T04:45:19.609Z,2.10
2019-02-18T04:47:45.670Z,2.00
2019-02-18T04:50:11.883Z,1.80
2019-02-18T04:52:37.954Z,1.70
2019-02-18T04:55:09.169Z,1.60
2019-02-18T04:57:35.343Z,1.50
2019-02-18T05:00:01.568Z,1.50
2019-02-18T05:02:29.520Z,1.40
2019-02-18T05:04:55.596Z,1.30
2019-02-18T05:07:21.661Z,1.10
2019-02-18T05:09:47.763Z,1.10
2019-02-18T05:12:13.839Z,1.00
2019-02-18T05:14:39.923Z,1.00
2019-02-18T05:17:05.992Z,1.00
2019-02-18T05:19:32.071Z,1.00
2019-02-18T05:21:58.128Z,0.90
2019-02-18T05:24:24.316Z,0.80
2019-02-18T05:26:50.379Z,0.70
2019-02-18T05:29:16.476Z,0.60
2019-02-18T05:31:42.544Z,0.60
2019-02-18T05:34:08.748Z,0.50
2019-02-18T05:36:34.807Z,0.40
2019-02-18T05:39:00.908Z,0.30
2019-02-18T05:41:26.985Z,0.30
2019-02-18T05:43:53.069Z,0.20
2019-02-18T05:46:19.239Z,0.10
2019-02-18T05:48:45.342Z,0.00
2019-02-18T05:51:11.512Z,0.00
2019-02-18T05:53:37.595Z,0.00
2019-02-18T05:56:03.675Z,-0.10
2019-02-18T05:58:29.857Z,-0.10
2019-02-18T06:00:55.933Z,-0.10
2019-02-18T06:03:22.023Z,-0.10
2019-02-18T06:05:48.105Z,0.00
2019-02-18T06:08:14.185Z,0.00
2019-02-18T06:10:40.260Z,0.10
2019-02-18T06:13:06.339Z,0.30
2019-02-18T06:15:32.437Z,0.40
2019-02-18T06:17:58.497Z,0.50
2019-02-18T06:20:24.585Z,0.60
2019-02-18T06:22:50.681Z,0.80
2019-02-18T06:25:16.761Z,0.90
2019-02-18T06:27:42.828Z,1.00
2019-02-18T06:30:09.015Z,1.20
2019-02-18T06:32:35.091Z,1.30
2019-02-18T06:35:01.187Z,1.40
2019-02-18T06:37:27.352Z,1.60
2019-02-18T06:39:53.553Z,1.60
2019-02-18T06:42:19.628Z,1.80
2019-02-18T06:44:47.623Z,1.80
2019-02-18T06:47:13.688Z,1.80
2019-02-18T06:49:39.782Z,1.80
2019-02-18T06:52:05.843Z,1.80
2019-02-18T06:54:31.903Z,1.90
2019-02-18T06:57:05.954Z,1.80
2019-02-18T06:59:33.924Z,1.90
2019-02-18T07:02:04.704Z,2.00
2019-02-18T07:04:32.675Z,2.00
2019-02-18T07:07:00.669Z,2.00
2019-02-18T07:09:34.587Z,2.10
2019-02-18T07:12:08.422Z,2.10
2019-02-18T07:14:34.496Z,2.20
2019-02-18T07:17:00.628Z,2.40
2019-02-18T07:19:26.691Z,2.50
2019-02-18T07:21:52.768Z,2.60
2019-02-18T07:24:18.860Z,2.70
2019-02-18T07:26:44.938Z,2.90
2019-02-18T07:29:11.011Z,3.00
2019-02-18T07:31:37.083Z,3.10
2019-02-18T07:34:03.467Z,3.20
2019-02-18T07:36:30.456Z,3.30
2019-02-18T07:38:56.584Z,3.50
2019-02-18T07:41:22.658Z,3.60
2019-02-18T07:43:48.724Z,3.70
2019-02-18T07:46:14.827Z,4.00
2019-02-18T07:48:41.002Z,4.10
2019-02-18T07:51:07.088Z,4.20
2019-02-18T07:53:33.156Z,4.40
2019-02-18T07:55:59.252Z,4.50
2019-02-18T07:58:25.331Z,4.70
2019-02-18T08:00:51.403Z,4.90
2019-02-18T08:03:17.493Z,4.90
2019-02-18T08:05:43.566Z,5.00
2019-02-18T08:08:09.647Z,5.20
2019-02-18T08:10:35.823Z,5.40
2019-02-18T08:13:01.904Z,5.60
2019-02-18T08:15:27.987Z,5.60
2019-02-18T08:17:54.075Z,6.00
2019-02-18T08:20:20.145Z,6.10
2019-02-18T08:22:46.232Z,6.10
2019-02-18T08:25:12.399Z,6.40
2019-02-18T08:27:38.492Z,6.60
2019-02-18T08:30:08.171Z,6.80
2019-02-18T08:32:34.292Z,6.90
2019-02-18T08:35:00.393Z,7.10
2019-02-18T08:37:26.459Z,7.30
2019-02-18T08:39:52.543Z,7.50
2019-02-18T08:42:18.651Z,7.60
2019-02-18T08:44:44.748Z,7.70
2019-02-18T08:47:10.833Z,7.80
2019-02-18T08:49:36.933Z,7.90
2019-02-18T08:52:03.021Z,8.10
2019-02-18T08:54:29.207Z,8.20
2019-02-18T08:56:55.297Z,8.30
2019-02-18T08:59:21.414Z,8.50
2019-02-18T09:01:47.519Z,8.60
2019-02-18T09:04:13.720Z,8.70
2019-02-18T09:06:39.796Z,8.90
2019-02-18T09:09:05.896Z,9.20
2019-02-18T09:11:31.992Z,9.60
2019-02-18T09:13:58.068Z,9.80
2019-02-18T09:16:24.142Z,10.00
2019-02-18T09:18:50.204Z,10.20
2019-02-18T09:21:16.314Z,10.40
2019-02-18T09:23:56.143Z,10.50
2019-02-18T09:26:22.331Z,10.60
2019-02-18T09:28:48.411Z,10.70
2019-02-18T09:31:15.913Z,10.80
2019-02-18T09:33:41.987Z,11.10
2019-02-18T09:36:08.073Z,11.20
2019-02-18T09:38:34.149Z,11.40
2019-02-18T09:41:00.215Z,11.40
2019-02-18T09:43:26.306Z,11.30
2019-02-18T09:45:52.390Z,10.80
2019-02-18T09:48:18.475Z,10.90
2019-02-18T09:50:44.555Z,11.30
2019-02-18T09:53:10.965Z,11.40
2019-02-18T09:55:37.144Z,11.60
2019-02-18T09:58:03.439Z,11.80
2019-02-18T10:00:29.532Z,12.00
2019-02-18T10:02:55.628Z,12.20
2019-02-18T10:05:21.737Z,12.20
2019-02-18T10:07:47.829Z,12.40
2019-02-18T10:10:13.916Z,12.60
2019-02-18T10:12:39.990Z,12.60
2019-02-18T10:15:08.413Z,12.70
2019-02-18T10:17:34.497Z,12.90
2019-02-18T10:20:00.578Z,13.20
2019-02-18T10:22:26.651Z,13.40
2019-02-18T10:24:52.749Z,13.50
2019-02-18T10:27:18.844Z,13.60
2019-02-18T10:29:44.943Z,13.70
2019-02-18T10:32:11.020Z,13.70
2019-02-18T10:34:37.097Z,13.90
2019-02-18T10:37:03.195Z,13.70
2019-02-18T10:39:29.367Z,13.80
2019-02-18T10:41:55.455Z,13.80
2019-02-18T10:44:21.520Z,13.90
2019-02-18T10:46:47.616Z,14.00
2019-02-18T10:49:19.829Z,13.90
2019-02-18T10:51:41.708Z,14.00
2019-02-18T10:54:08.086Z,14.00
2019-02-18T10:56:54.160Z,14.10
2019-02-18T10:59:20.350Z,13.80
2019-02-18T11:01:46.448Z,14.00
2019-02-18T11:04:12.531Z,14.20
2019-02-18T11:06:38.704Z,14.20
2019-02-18T11:09:07.908Z,14.30
2019-02-18T11:11:33.998Z,14.20
2019-02-18T11:14:00.093Z,14.40
2019-02-18T11:16:26.268Z,14.50
2019-02-18T11:18:52.776Z,14.60
2019-02-18T11:21:18.961Z,14.70
2019-02-18T11:23:45.056Z,14.70
2019-02-18T11:26:11.139Z,14.70
2019-02-18T11:28:37.347Z,14.90
2019-02-18T11:31:03.763Z,14.90
2019-02-18T11:33:29.937Z,14.90
2019-02-18T11:35:56.499Z,15.10
2019-02-18T11:38:22.678Z,15.40
2019-02-18T11:40:48.875Z,15.40
2019-02-18T11:43:14.947Z,15.50
2019-02-18T11:45:41.139Z,15.60
2019-02-18T11:48:07.219Z,15.60
2019-02-18T11:50:33.405Z,15.70
2019-02-18T11:52:59.479Z,15.70
2019-02-18T11:55:25.859Z,15.50
2019-02-18T11:57:51.946Z,15.30
2019-02-18T12:00:18.129Z,15.30
2019-02-18T12:02:44.406Z,15.40
2019-02-18T12:05:10.812Z,15.50
2019-02-18T12:07:37.005Z,15.60
2019-02-18T12:10:05.284Z,15.70
2019-02-18T12:12:31.463Z,15.70
2019-02-18T12:14:57.946Z,15.70
2019-02-18T12:17:24.135Z,15.80
2019-02-18T12:19:50.316Z,16.00
2019-02-18T12:22:16.516Z,15.90
2019-02-18T12:24:42.684Z,16.10
2019-02-18T12:27:08.894Z,16.20
2019-02-18T12:29:35.060Z,16.30
2019-02-18T12:32:01.281Z,16.40
2019-02-18T12:34:27.451Z,16.50
2019-02-18T12:36:53.727Z,16.70
2019-02-18T12:39:19.909Z,16.60
2019-02-18T12:41:48.660Z,16.60
2019-02-18T12:44:14.064Z,16.70
2019-02-18T12:46:40.237Z,16.80
2019-02-18T12:49:06.430Z,16.90
2019-02-18T12:51:32.615Z,17.00
2019-02-18T12:54:05.067Z,17.60
2019-02-18T12:56:27.081Z,18.00
2019-02-18T12:58:54.872Z,18.90
2019-02-18T13:01:21.252Z,19.10
2019-02-18T13:03:47.579Z,19.70
2019-02-18T13:06:13.763Z,20.70
2019-02-18T13:08:39.928Z,21.40
2019-02-18T13:11:06.116Z,21.80
2019-02-18T13:13:32.292Z,22.10
2019-02-18T13:15:58.479Z,22.50
2019-02-18T13:18:24.657Z,22.80
2019-02-18T13:20:51.061Z,23.40
2019-02-18T13:23:17.251Z,23.90
2019-02-18T13:25:47.492Z,24.70
2019-02-18T13:28:11.408Z,24.90
2019-02-18T13:30:37.592Z,25.00
2019-02-18T13:33:03.776Z,24.70
2019-02-18T13:35:30.068Z,24.70
2019-02-18T13:37:56.279Z,24.50
2019-02-18T13:40:22.755Z,24.70
2019-02-18T13:42:50.220Z,25.00
2019-02-18T13:45:16.476Z,25.10
2019-02-18T13:47:42.629Z,25.10
2019-02-18T13:50:10.400Z,25.40
2019-02-18T13:52:36.602Z,25.50
2019-02-18T13:55:04.981Z,25.30
2019-02-18T13:57:31.049Z,25.60
2019-02-18T13:59:57.445Z,25.90
2019-02-18T14:02:43.508Z,26.00
2019-02-18T14:05:09.819Z,26.50
2019-02-18T14:07:36.342Z,26.30
2019-02-18T14:10:03.679Z,26.60
2019-02-18T14:12:30.851Z,27.00
2019-02-18T14:14:57.140Z,27.30
2019-02-18T14:17:23.212Z,26.60
2019-02-18T14:20:10.389Z,26.10
2019-02-18T14:22:36.776Z,25.80
2019-02-18T14:25:05.080Z,25.70
2019-02-18T14:27:31.756Z,25.70
2019-02-18T14:29:57.938Z,25.70
2019-02-18T14:32:24.108Z,25.80
2019-02-18T14:34:50.290Z,25.90
2019-02-18T14:37:16.680Z,25.60
2019-02-18T14:39:42.870Z,25.60
2019-02-18T14:42:08.949Z,25.90
2019-02-18T14:44:35.146Z,26.30
2019-02-18T14:47:01.614Z,26.20
2019-02-18T14:49:29.327Z,26.30
2019-02-18T14:51:55.506Z,26.40
2019-02-18T14:54:21.873Z,27.30
2019-02-18T14:56:48.067Z,27.00
2019-02-18T14:59:14.135Z,27.00
2019-02-18T15:01:40.301Z,27.00
2019-02-18T15:04:06.583Z,27.00
2019-02-18T15:06:33.047Z,26.90
2019-02-18T15:08:59.231Z,27.20
2019-02-18T15:11:25.412Z,27.00
2019-02-18T15:13:51.617Z,26.50
2019-02-18T15:16:17.803Z,26.50
2019-02-18T15:18:43.977Z,26.60
2019-02-18T15:21:10.284Z,26.40
2019-02-18T15:23:36.357Z,26.30
2019-02-18T15:26:02.977Z,26.40
2019-02-18T15:28:29.135Z,26.30
2019-02-18T15:30:55.434Z,26.20
2019-02-18T15:33:21.601Z,26.30
2019-02-18T15:35:47.799Z,26.30
2019-02-18T15:38:13.980Z,26.50
2019-02-18T15:40:40.263Z,25.70
2019-02-18T15:43:06.437Z,25.10
2019-02-18T15:45:33.119Z,24.00
2019-02-18T15:48:01.783Z,23.10
2019-02-18T15:50:27.272Z,22.20
2019-02-18T15:52:53.436Z,21.20
2019-02-18T15:55:19.741Z,20.40
2019-02-18T15:57:45.915Z,20.20
2019-02-18T16:00:21.379Z,20.40
2019-02-18T16:02:47.863Z,21.00
2019-02-18T16:05:14.024Z,21.60
2019-02-18T16:07:40.222Z,22.30
2019-02-18T16:10:07.844Z,23.10
2019-02-18T16:12:33.987Z,23.60
2019-02-18T16:15:00.057Z,22.70
2019-02-18T16:17:26.357Z,21.30
2019-02-18T16:19:52.548Z,19.90
2019-02-18T16:22:19.036Z,19.20
2019-02-18T16:24:45.267Z,18.80
2019-02-18T16:27:11.439Z,18.00
2019-02-18T16:29:37.641Z,16.60
2019-02-18T16:32:03.834Z,15.20
2019-02-18T16:34:29.999Z,14.00
2019-02-18T16:36:56.103Z,13.00
2019-02-18T16:39:22.307Z,12.20
2019-02-18T16:41:48.470Z,11.50
2019-02-18T16:44:14.651Z,10.90
2019-02-18T16:46:40.820Z,10.70
2019-02-18T16:49:07.421Z,10.30
2019-02-18T16:51:33.595Z,10.10
2019-02-18T16:53:59.760Z,9.90
2019-02-18T16:56:25.852Z,9.70
2019-02-18T16:58:52.032Z,9.50
2019-02-18T17:01:18.428Z,9.40
2019-02-18T17:03:44.535Z,9.20
2019-02-18T17:06:10.700Z,9.10
2019-02-18T17:08:36.796Z,9.10
2019-02-18T17:11:02.980Z,9.10
2019-02-18T17:13:29.196Z,9.00
2019-02-18T17:15:55.443Z,8.80
2019-02-18T17:18:21.634Z,8.50
2019-02-18T17:20:48.123Z,8.30
2019-02-18T17:23:14.308Z,8.00
2019-02-18T17:25:40.513Z,7.80
2019-02-18T17:28:06.764Z,7.50
2019-02-18T17:30:32.952Z,7.60
2019-02-18T17:32:59.187Z,7.20
2019-02-18T17:35:25.399Z,7.30
2019-02-18T17:37:51.579Z,7.30
2019-02-18T17:40:17.780Z,7.20
2019-02-18T17:42:43.976Z,7.00
2019-02-18T17:45:15.195Z,6.90
2019-02-18T17:47:41.372Z,6.70
2019-02-18T17:50:10.275Z,6.70
2019-02-18T17:52:36.459Z,6.60
2019-02-18T17:55:04.552Z,6.50
2019-02-18T17:57:30.753Z,6.40
2019-02-18T17:59:57.223Z,6.60
2019-02-18T18:02:23.322Z,6.20
2019-02-18T18:04:49.492Z,6.20
2019-02-18T18:07:15.683Z,6.10
2019-02-18T18:09:41.855Z,6.00
2019-02-18T18:12:08.138Z,5.80
2019-02-18T18:14:34.321Z,5.50
2019-02-18T18:17:00.516Z,5.60
2019-02-18T18:19:27.025Z,5.50
2019-02-18T18:21:53.249Z,5.50
2019-02-18T18:24:19.417Z,5.40
2019-02-18T18:26:45.508Z,5.20
2019-02-18T18:29:11.667Z,5.20
2019-02-18T18:31:37.889Z,5.10
2019-02-18T18:34:04.184Z,5.00
2019-02-18T18:36:30.354Z,5.00
2019-02-18T18:38:56.839Z,4.90
2019-02-18T18:41:22.915Z,4.90
2019-02-18T18:43:49.112Z,4.80
2019-02-18T18:46:15.195Z,4.80
2019-02-18T18:48:41.372Z,4.90
2019-02-18T18:51:07.563Z,4.90
2019-02-18T18:53:33.642Z,4.90
2019-02-18T18:55:59.847Z,4.80
2019-02-18T18:58:26.223Z,4.80
2019-02-18T19:00:52.310Z,4.80
2019-02-18T19:03:18.419Z,4.80
2019-02-18T19:05:44.499Z,4.70
2019-02-18T19:08:10.579Z,4.70
2019-02-18T19:10:36.688Z,4.70
2019-02-18T19:13:02.771Z,4.60
2019-02-18T19:15:28.958Z,4.50
2019-02-18T19:17:55.336Z,4.40
2019-02-18T19:20:21.524Z,4.30
2019-02-18T19:22:47.611Z,4.20
2019-02-18T19:25:13.697Z,4.10
2019-02-18T19:27:39.955Z,4.00
2019-02-18T19:30:09.848Z,3.80
2019-02-18T19:32:35.932Z,3.70
2019-02-18T19:35:03.923Z,3.60
2019-02-18T19:37:29.993Z,3.70
2019-02-18T19:39:56.075Z,3.70
2019-02-18T19:42:22.143Z,3.70
2019-02-18T19:44:48.227Z,3.80
2019-02-18T19:47:14.299Z,3.80
2019-02-18T19:49:40.389Z,3.80
2019-02-18T19:52:06.447Z,3.70
2019-02-18T19:54:32.935Z,3.60
2019-02-18T19:56:59.107Z,3.60
2019-02-18T19:59:25.199Z,3.50
2019-02-18T20:01:51.364Z,3.60
2019-02-18T20:04:18.688Z,3.60
2019-02-18T20:06:44.743Z,2.50
2019-02-18T20:09:16.152Z,3.60
2019-02-18T20:11:42.735Z,3.60
2019-02-18T20:14:09.037Z,3.50
2019-02-18T20:16:35.217Z,3.50
2019-02-18T20:19:01.394Z,3.40
2019-02-18T20:21:27.576Z,3.40
2019-02-18T20:23:53.664Z,3.30
2019-02-18T20:26:19.814Z,3.40
2019-02-18T20:28:46.300Z,3.30
2019-02-18T20:31:12.758Z,3.30
2019-02-18T20:33:39.032Z,3.40
2019-02-18T20:36:05.124Z,3.50
2019-02-18T20:38:31.207Z,3.40
2019-02-18T20:40:57.387Z,3.40
2019-02-18T20:43:23.460Z,3.40
2019-02-18T20:45:49.546Z,3.50
2019-02-18T20:48:15.724Z,3.60
2019-02-18T20:50:42.118Z,3.60
2019-02-18T20:53:08.187Z,3.70
2019-02-18T20:55:34.271Z,3.60
2019-02-18T20:58:00.347Z,3.50
2019-02-18T21:00:26.442Z,3.50
2019-02-18T21:02:52.504Z,3.40
2019-02-18T21:05:18.595Z,3.40
2019-02-18T21:07:44.868Z,3.30
2019-02-18T21:10:13.766Z,3.40
2019-02-18T21:12:39.964Z,3.30
2019-02-18T21:15:07.164Z,3.30
2019-02-18T21:17:33.338Z,3.20
2019-02-18T21:19:59.519Z,3.20
2019-02-18T21:22:25.702Z,3.10
2019-02-18T21:24:51.896Z,3.20
2019-02-18T21:27:18.389Z,3.20
2019-02-18T21:29:44.458Z,3.10
2019-02-18T21:32:10.655Z,3.10
2019-02-18T21:34:36.816Z,3.10
2019-02-18T21:37:03.009Z,3.10
2019-02-18T21:39:29.107Z,3.10
2019-02-18T21:41:55.173Z,3.00
2019-02-18T21:44:25.259Z,2.90
2019-02-18T21:46:49.344Z,2.90
2019-02-18T21:49:15.431Z,2.90
2019-02-18T21:51:41.536Z,2.90
2019-02-18T21:54:07.603Z,2.90
2019-02-18T21:56:33.780Z,2.70
2019-02-18T21:58:59.869Z,2.70
2019-02-18T22:01:25.940Z,2.70
2019-02-18T22:03:52.050Z,2.60
2019-02-18T22:06:18.212Z,2.70
2019-02-18T22:08:44.289Z,2.60
2019-02-18T22:11:10.520Z,2.60
2019-02-18T22:13:36.676Z,2.60
2019-02-18T22:16:02.885Z,2.60
2019-02-18T22:18:28.964Z,2.60
2019-02-18T22:20:55.211Z,2.60
2019-02-18T22:23:21.379Z,2.50
2019-02-18T22:25:47.559Z,2.40
2019-02-18T22:28:13.647Z,2.40
2019-02-18T22:30:40.028Z,2.30
2019-02-18T22:33:06.093Z,2.20
2019-02-18T22:35:32.294Z,2.20
2019-02-18T22:37:58.873Z,2.20
2019-02-18T22:40:25.104Z,2.10
2019-02-18T22:42:51.284Z,2.00
2019-02-18T22:45:17.472Z,2.00
2019-02-18T22:47:43.656Z,2.00
2019-02-18T22:50:10.634Z,2.00
2019-02-18T22:52:36.931Z,2.00
2019-02-18T22:55:04.785Z,2.00
2019-02-18T22:57:30.841Z,2.10
2019-02-18T22:59:56.919Z,2.00
2019-02-18T23:02:23.115Z,2.10
2019-02-18T23:04:49.304Z,2.10
2019-02-18T23:07:15.389Z,2.10
2019-02-18T23:09:41.447Z,2.10
2019-02-18T23:12:07.925Z,2.00
2019-02-18T23:14:34.065Z,2.10
2019-02-18T23:17:00.166Z,2.10
2019-02-18T23:19:26.209Z,2.10
2019-02-18T23:21:52.266Z,2.00
2019-02-18T23:24:18.337Z,1.90
2019-02-18T23:26:44.406Z,1.80
2019-02-18T23:29:10.500Z,1.80
2019-02-18T23:31:36.668Z,1.70
2019-02-18T23:34:03.145Z,1.70
2019-02-18T23:36:29.342Z,1.70
2019-02-18T23:38:55.440Z,1.70
2019-02-18T23:41:21.639Z,1.60
2019-02-18T23:43:47.720Z,1.60
2019-02-18T23:46:13.803Z,1.50
2019-02-18T23:48:59.806Z,1.30
2019-02-18T23:51:25.883Z,1.10
2019-02-18T23:53:51.979Z,1.20
2019-02-18T23:56:18.064Z,1.20
2019-02-18T23:58:44.152Z,1.30
